createdAt,value
2019-01-09T09:40:31.417Z,2.50
2019-01-09T09:45:27.011Z,2.70
2019-01-09T09:50:22.963Z,2.80
2019-01-09T09:55:18.585Z,3.00
2019-01-09T10:05:19.396Z,3.10
2019-01-09T10:10:15.306Z,3.20
2019-01-09T10:15:11.919Z,3.30
2019-01-09T10:30:15.876Z,3.50
2019-01-09T10:35:11.647Z,3.60
2019-01-09T10:40:08.497Z,3.80
2019-01-09T10:45:06.012Z,4.40
2019-01-09T10:50:01.949Z,4.80
2019-01-09T10:54:57.632Z,5.40
2019-01-09T10:59:53.213Z,6.00
2019-01-09T11:04:48.878Z,6.50
2019-01-09T11:09:44.534Z,6.70
2019-01-09T11:14:40.205Z,6.70
2019-01-09T11:19:35.826Z,6.30
2019-01-09T11:24:31.451Z,6.00
2019-01-09T11:29:27.199Z,5.70
2019-01-09T11:34:22.836Z,5.50
2019-01-09T11:39:18.517Z,5.30
2019-01-09T11:44:14.087Z,5.00
2019-01-09T11:49:09.738Z,4.70
2019-01-09T11:54:05.525Z,4.40
2019-01-09T11:59:01.102Z,4.20
2019-01-09T12:03:56.681Z,4.10
2019-01-09T12:08:52.327Z,4.60
2019-01-09T12:13:47.909Z,5.80
2019-01-09T12:18:43.615Z,6.50
2019-01-09T12:23:39.213Z,6.50
2019-01-09T12:28:34.899Z,6.60
2019-01-09T12:33:30.596Z,6.70
2019-01-09T12:38:26.245Z,6.50
2019-01-09T12:43:21.915Z,6.00
2019-01-09T12:48:17.502Z,5.70
2019-01-09T12:53:13.066Z,5.60
2019-01-09T12:58:08.814Z,5.50
2019-01-09T13:03:04.601Z,5.50
2019-01-09T13:08:00.637Z,5.40
2019-01-09T13:12:56.319Z,5.30
2019-01-09T13:17:51.998Z,5.30
2019-01-09T13:22:47.658Z,5.20
2019-01-09T13:27:43.344Z,5.00
2019-01-09T13:32:39.017Z,4.90
2019-01-09T13:37:34.677Z,4.80
2019-01-09T13:42:30.343Z,4.80
2019-01-09T13:47:25.994Z,4.80
2019-01-09T13:52:21.659Z,4.80
2019-01-09T13:57:17.313Z,4.70
2019-01-09T14:02:12.994Z,4.60
2019-01-09T14:07:10.485Z,4.70
2019-01-09T14:12:06.356Z,4.70
2019-01-09T14:17:01.954Z,4.70
2019-01-09T14:21:57.613Z,4.70
2019-01-09T14:26:53.274Z,4.70
2019-01-09T14:31:48.942Z,4.60
2019-01-09T14:36:44.575Z,4.50
2019-01-09T14:41:40.204Z,4.50
2019-01-09T14:46:35.858Z,4.40
2019-01-09T14:51:31.529Z,4.30
2019-01-09T14:56:27.237Z,4.20
2019-01-09T15:01:22.917Z,4.10
2019-01-09T15:06:19.027Z,4.10
2019-01-09T15:11:14.726Z,4.00
2019-01-09T15:16:10.394Z,3.90
2019-01-09T15:21:06.083Z,3.80
2019-01-09T15:26:02.493Z,3.70
2019-01-09T15:30:59.250Z,3.60
2019-01-09T15:35:55.389Z,3.40
2019-01-09T15:40:51.088Z,3.30
2019-01-09T15:45:46.787Z,3.20
2019-01-09T15:50:42.609Z,3.10
2019-01-09T15:55:38.354Z,3.00
2019-01-09T16:00:39.537Z,2.90
2019-01-09T16:05:36.481Z,2.80
2019-01-09T16:10:32.130Z,2.70
2019-01-09T16:15:27.909Z,2.50
2019-01-09T16:20:23.698Z,2.40
2019-01-09T16:25:19.518Z,2.20
2019-01-09T16:30:21.926Z,2.00
2019-01-09T16:35:17.501Z,1.90
2019-01-09T16:40:13.419Z,1.80
2019-01-09T16:45:10.386Z,1.70
2019-01-09T16:50:07.102Z,1.60
2019-01-09T16:55:02.734Z,1.50
2019-01-09T16:59:58.674Z,1.50
2019-01-09T17:04:54.358Z,1.30
2019-01-09T17:09:50.422Z,1.30
2019-01-09T17:14:46.101Z,1.10
